Location name: Ururumanza | Identifier : 262001 | Type : Hydrology Station

  • Parameter : Stage
  • Unit : m
  • Start time : 1971-12-31T08:00:00.0000000+02:00
  • End time : 2014-08-11T00:00:00.0000000+02:00
  • Parameter : Stage
  • Unit : m
  • Start time : 2016-03-01T08:00:00.0000000+02:00
  • End time : 2017-03-31T17:00:00.0000000+02:00
Date Parameter Unit Value
2018-05-25T11:08:00.0000000+02:00 Stage m 0.59
2023-08-21T13:30:00.0000000+02:00 Discharge m^3/s 0.083
2023-08-21T13:30:00.0000000+02:00 Stage m 0.12
2023-04-17T16:30:00.0000000+02:00 Stage m 0.51
2023-04-17T16:30:00.0000000+02:00 Discharge m^3/s 1.344
1969-12-18T00:00:00.0000000+02:00 Discharge m^3/s 0.027000001
1969-12-18T00:00:00.0000000+02:00 Stage m 0.699999988
1970-01-11T00:00:00.0000000+02:00 Discharge m^3/s 0.32100001
1970-01-11T00:00:00.0000000+02:00 Stage m 0.209999993
1970-01-14T00:00:00.0000000+02:00 Discharge m^3/s 0.89200002
1970-01-14T00:00:00.0000000+02:00 Stage m 0.349999994
1970-03-31T00:00:00.0000000+02:00 Discharge m^3/s 2.539999962
1970-03-31T00:00:00.0000000+02:00 Stage m 0.50999999
1970-04-22T00:00:00.0000000+02:00 Discharge m^3/s 0.879999995
1970-04-22T00:00:00.0000000+02:00 Stage m 0.300000012
1970-05-02T00:00:00.0000000+02:00 Discharge m^3/s 1.659999967
1970-05-02T00:00:00.0000000+02:00 Stage m 0.409999996
1970-05-20T00:00:00.0000000+02:00 Discharge m^3/s 0.665000021
1970-05-20T00:00:00.0000000+02:00 Stage m 0.289999992
1970-06-03T00:00:00.0000000+02:00 Discharge m^3/s 0.400000006
1970-06-03T00:00:00.0000000+02:00 Stage m 0.25999999
1970-07-02T00:00:00.0000000+02:00 Discharge m^3/s 0.127000004
1970-07-02T00:00:00.0000000+02:00 Stage m 0.140000001
1970-07-27T00:00:00.0000000+02:00 Discharge m^3/s 0.075999998
1970-07-27T00:00:00.0000000+02:00 Stage m 0.119999997
1970-08-07T00:00:00.0000000+02:00 Discharge m^3/s 0.034000002
1970-08-07T00:00:00.0000000+02:00 Stage m 0.899999976
1970-08-31T00:00:00.0000000+02:00 Discharge m^3/s 0.079999998
1970-08-31T00:00:00.0000000+02:00 Stage m 0.129999995
1970-09-24T00:00:00.0000000+02:00 Discharge m^3/s 0.046
1970-09-24T00:00:00.0000000+02:00 Stage m 0.800000012
1970-12-23T00:00:00.0000000+02:00 Discharge m^3/s 0.164000005
1970-12-23T00:00:00.0000000+02:00 Stage m 0.270000011
1971-01-20T00:00:00.0000000+02:00 Discharge m^3/s 0.093999997
1971-01-20T00:00:00.0000000+02:00 Stage m 0.300000012
1971-01-22T00:00:00.0000000+02:00 Discharge m^3/s 0.998000026
1971-01-22T00:00:00.0000000+02:00 Stage m 0.444999993
1971-02-01T00:00:00.0000000+02:00 Discharge m^3/s 0.259000003
1971-02-01T00:00:00.0000000+02:00 Stage m 0.400000006
1971-02-08T00:00:00.0000000+02:00 Discharge m^3/s 0.333999991
1971-02-08T00:00:00.0000000+02:00 Stage m 0.449999988
1971-02-16T00:00:00.0000000+02:00 Discharge m^3/s 0.312999994
1971-02-16T00:00:00.0000000+02:00 Stage m 0.5
1971-02-24T00:00:00.0000000+02:00 Discharge m^3/s 0.331
1971-02-24T00:00:00.0000000+02:00 Stage m 0.5
1971-03-04T00:00:00.0000000+02:00 Discharge m^3/s 0.158999994
1971-03-04T00:00:00.0000000+02:00 Stage m 0.469999999
1971-03-11T00:00:00.0000000+02:00 Discharge m^3/s 0.112999998
1971-03-11T00:00:00.0000000+02:00 Stage m 0.5
1971-03-17T00:00:00.0000000+02:00 Discharge m^3/s 0.286000013
1971-03-17T00:00:00.0000000+02:00 Stage m 0.579999983
1971-03-29T00:00:00.0000000+02:00 Discharge m^3/s 0.27700001
1971-03-29T00:00:00.0000000+02:00 Stage m 0.589999974
1971-04-05T00:00:00.0000000+02:00 Discharge m^3/s 0.147
1971-04-05T00:00:00.0000000+02:00 Stage m 0.529999971
1971-04-12T00:00:00.0000000+02:00 Discharge m^3/s 0.94599998
1971-04-12T00:00:00.0000000+02:00 Stage m 0.745000005
1971-04-13T00:00:00.0000000+02:00 Discharge m^3/s 3.299999952
1971-04-13T00:00:00.0000000+02:00 Stage m 0.99000001
1971-04-22T00:00:00.0000000+02:00 Discharge m^3/s 0.920000017
1971-04-22T00:00:00.0000000+02:00 Stage m 0.680000007
1971-04-27T00:00:00.0000000+02:00 Discharge m^3/s 1.279999971
1971-04-27T00:00:00.0000000+02:00 Stage m 0.785000026
1971-05-03T00:00:00.0000000+02:00 Discharge m^3/s 1.320000052
1971-05-03T00:00:00.0000000+02:00 Stage m 0.769999981
1971-05-06T00:00:00.0000000+02:00 Discharge m^3/s 3.630000114
1971-05-06T00:00:00.0000000+02:00 Stage m 1.024999976
1971-05-07T00:00:00.0000000+02:00 Discharge m^3/s 1.690000057
1971-05-07T00:00:00.0000000+02:00 Stage m 0.88499999
1971-05-08T00:00:00.0000000+02:00 Discharge m^3/s 8.930000305
1971-05-08T00:00:00.0000000+02:00 Stage m 1.299999952
1971-05-13T00:00:00.0000000+02:00 Discharge m^3/s 4.630000114
1971-05-13T00:00:00.0000000+02:00 Stage m 1.085000038
1971-05-19T00:00:00.0000000+02:00 Discharge m^3/s 2.329999924
1971-05-19T00:00:00.0000000+02:00 Stage m 0.860000014
1971-05-25T00:00:00.0000000+02:00 Discharge m^3/s 2.230000019
1971-05-25T00:00:00.0000000+02:00 Stage m 0.74000001
1971-06-03T00:00:00.0000000+02:00 Discharge m^3/s 0.700999975
1971-06-03T00:00:00.0000000+02:00 Stage m 0.460000008
1971-06-17T00:00:00.0000000+02:00 Discharge m^3/s 0.268999994
1971-06-17T00:00:00.0000000+02:00 Stage m 0.330000013
1971-08-04T00:00:00.0000000+02:00 Discharge m^3/s 0.082000002
1971-08-04T00:00:00.0000000+02:00 Stage m 0.180000007
1971-08-19T00:00:00.0000000+02:00 Discharge m^3/s 0.041000001
1971-08-19T00:00:00.0000000+02:00 Stage m 0.150000006
1971-08-31T00:00:00.0000000+02:00 Discharge m^3/s 0.206
1971-08-31T00:00:00.0000000+02:00 Stage m 0.239999995
1971-09-08T00:00:00.0000000+02:00 Discharge m^3/s 0.131999999
1971-09-08T00:00:00.0000000+02:00 Stage m 0.219999999
1971-09-19T00:00:00.0000000+02:00 Discharge m^3/s 0.066
1971-09-19T00:00:00.0000000+02:00 Stage m 0.02
1971-09-29T00:00:00.0000000+02:00 Discharge m^3/s 0.054000001
1971-09-29T00:00:00.0000000+02:00 Stage m 0.129999995
1971-10-28T00:00:00.0000000+02:00 Discharge m^3/s 0.041000001
1971-10-28T00:00:00.0000000+02:00 Stage m 0.159999996
1971-11-14T00:00:00.0000000+02:00 Discharge m^3/s 0.075000003
1971-11-14T00:00:00.0000000+02:00 Stage m 0.209999993
1971-11-28T00:00:00.0000000+02:00 Discharge m^3/s 0.529999971
1971-11-28T00:00:00.0000000+02:00 Stage m 0.423000008
1971-12-14T00:00:00.0000000+02:00 Discharge m^3/s 0.035
1971-12-14T00:00:00.0000000+02:00 Stage m 0.170000002
1971-12-21T00:00:00.0000000+02:00 Discharge m^3/s 1.539999962
1971-12-21T00:00:00.0000000+02:00 Stage m 0.714999974
1971-12-29T00:00:00.0000000+02:00 Discharge m^3/s 0.301999986
1971-12-29T00:00:00.0000000+02:00 Stage m 0.319999993
1972-01-06T00:00:00.0000000+02:00 Discharge m^3/s 0.122000001
1972-01-06T00:00:00.0000000+02:00 Stage m 0.239999995
1972-01-11T00:00:00.0000000+02:00 Discharge m^3/s 0.597000003
1972-01-11T00:00:00.0000000+02:00 Stage m 0.540000021
1972-01-13T00:00:00.0000000+02:00 Discharge m^3/s 0.289999992
1972-01-13T00:00:00.0000000+02:00 Stage m 0.379999995
1972-02-01T00:00:00.0000000+02:00 Discharge m^3/s 0.068000004
1972-02-01T00:00:00.0000000+02:00 Stage m 0.275000006
1972-02-07T00:00:00.0000000+02:00 Discharge m^3/s 3.960000038
1972-02-07T00:00:00.0000000+02:00 Stage m 1.004999995
1972-02-08T00:00:00.0000000+02:00 Discharge m^3/s 0.625
1972-02-08T00:00:00.0000000+02:00 Stage m 0.550000012
1972-02-23T00:00:00.0000000+02:00 Discharge m^3/s 0.310000002
1972-02-23T00:00:00.0000000+02:00 Stage m 0.379999995
1972-02-25T00:00:00.0000000+02:00 Discharge m^3/s 0.598999977
1972-02-25T00:00:00.0000000+02:00 Stage m 0.479999989
1972-03-08T00:00:00.0000000+02:00 Discharge m^3/s 0.273000002
1972-03-08T00:00:00.0000000+02:00 Stage m 0.340000004
1972-03-16T00:00:00.0000000+02:00 Discharge m^3/s 0.209000006
1972-03-16T00:00:00.0000000+02:00 Stage m 0.310000002
1972-04-06T00:00:00.0000000+02:00 Discharge m^3/s 0.112000003
1972-04-06T00:00:00.0000000+02:00 Stage m 0.230000004
1972-04-13T00:00:00.0000000+02:00 Discharge m^3/s 0.510999978
1972-04-13T00:00:00.0000000+02:00 Stage m 0.379999995
1972-04-27T00:00:00.0000000+02:00 Discharge m^3/s 0.170000002
1972-04-27T00:00:00.0000000+02:00 Stage m 0.245000005
1972-05-04T00:00:00.0000000+02:00 Discharge m^3/s 0.25
1972-05-04T00:00:00.0000000+02:00 Stage m 0.280000001
1972-05-10T00:00:00.0000000+02:00 Discharge m^3/s 0.230000004
1972-05-10T00:00:00.0000000+02:00 Stage m 0.280000001
1972-05-19T00:00:00.0000000+02:00 Discharge m^3/s 0.367000014
1972-05-19T00:00:00.0000000+02:00 Stage m 0.310000002
1972-06-04T00:00:00.0000000+02:00 Discharge m^3/s 1.139999986
1972-06-04T00:00:00.0000000+02:00 Stage m 0.535000026
1972-06-16T00:00:00.0000000+02:00 Discharge m^3/s 0.550000012
1972-06-16T00:00:00.0000000+02:00 Stage m 0.25999999
1972-06-28T00:00:00.0000000+02:00 Discharge m^3/s 0.419999987
1972-06-28T00:00:00.0000000+02:00 Stage m 0.310000002
2017-12-04T11:12:00.0000000+02:00 Discharge m^3/s 0.14
2017-12-04T11:12:00.0000000+02:00 Stage m 0.33
2018-09-07T08:37:00.0000000+02:00 Discharge m^3/s 0.16
2018-09-07T08:37:00.0000000+02:00 Stage m 0.3
2018-12-21T10:38:00.0000000+02:00 Discharge m^3/s 0.701
2018-12-21T10:38:00.0000000+02:00 Stage m 0.45
2019-09-11T09:01:00.0000000+02:00 Discharge m^3/s 0.04
2020-10-29T09:52:00.0000000+02:00 Discharge m^3/s 0.47
2021-12-03T10:00:00.0000000+02:00 Discharge m^3/s 0.12